createdAt,value
2018-08-19T00:02:26.200Z,99633.64
2018-08-19T00:05:06.964Z,99637.59
2018-08-19T00:07:35.695Z,99632.84
2018-08-19T00:10:05.679Z,99625.92
2018-08-19T00:12:45.576Z,99634.03
2018-08-19T00:15:15.601Z,99630.20
2018-08-19T00:17:44.267Z,99627.41
2018-08-19T00:20:14.571Z,99624.92
2018-08-19T00:22:47.096Z,99630.72
2018-08-19T00:25:26.783Z,99636.51
2018-08-19T00:27:55.448Z,99625.99
2018-08-19T00:30:27.924Z,99627.22
2018-08-19T00:32:59.744Z,99629.52
2018-08-19T00:35:29.083Z,99631.64
2018-08-19T00:37:59.744Z,99630.39
2018-08-19T00:40:29.341Z,99628.72
2018-08-19T00:42:59.961Z,99623.09
2018-08-19T00:45:29.347Z,99625.53
2018-08-19T00:47:57.905Z,99627.44
2018-08-19T00:50:30.960Z,99622.52
2018-08-19T00:53:00.120Z,99627.09
2018-08-19T00:55:36.793Z,99628.92
2018-08-19T00:58:15.991Z,99629.96
2018-08-19T01:00:44.833Z,99630.06
2018-08-19T01:03:13.994Z,99628.86
2018-08-19T01:05:46.775Z,99633.50
2018-08-19T01:08:15.789Z,99636.73
2018-08-19T01:10:46.872Z,99640.27
2018-08-19T01:13:16.044Z,99633.50
2018-08-19T01:15:46.191Z,99636.18
2018-08-19T01:18:14.675Z,99639.09
2018-08-19T01:20:43.902Z,99633.91
2018-08-19T01:23:12.552Z,99635.59
2018-08-19T01:25:40.990Z,99637.50
2018-08-19T01:28:11.164Z,99639.66
2018-08-19T01:30:39.795Z,99637.22
2018-08-19T01:33:12.261Z,99640.74
2018-08-19T01:35:43.360Z,99642.59
2018-08-19T01:38:14.767Z,99654.09
2018-08-19T01:40:43.763Z,99643.66
2018-08-19T01:43:12.120Z,99656.06
2018-08-19T01:45:42.580Z,99646.02
2018-08-19T01:48:12.168Z,99646.88
2018-08-19T01:50:42.856Z,99648.59
2018-08-19T01:53:18.320Z,99648.89
2018-08-19T01:55:47.443Z,99655.69
2018-08-19T01:58:18.416Z,99658.36
2018-08-19T02:00:48.324Z,99662.61
2018-08-19T02:03:18.029Z,99661.41
2018-08-19T02:05:47.371Z,99665.02
2018-08-19T02:08:15.909Z,99652.85
2018-08-19T02:10:44.616Z,99651.40
2018-08-19T02:13:13.703Z,99655.27
2018-08-19T02:15:42.717Z,99656.66
2018-08-19T02:18:16.691Z,99661.29
2018-08-19T02:20:46.636Z,99657.55
2018-08-19T02:23:17.500Z,99658.27
2018-08-19T02:25:48.063Z,99658.60
2018-08-19T02:28:22.875Z,99660.73
2018-08-19T02:31:00.175Z,99658.28
2018-08-19T02:33:33.514Z,99663.25
2018-08-19T02:36:08.557Z,99663.00
2018-08-19T02:38:38.795Z,99667.89
2018-08-19T02:41:07.589Z,99659.82
2018-08-19T02:43:46.695Z,99658.25
2018-08-19T02:46:15.042Z,99653.94
2018-08-19T02:48:53.580Z,99657.45
2018-08-19T02:51:23.571Z,99662.94
2018-08-19T02:53:53.499Z,99656.66
2018-08-19T02:56:22.281Z,99656.77
2018-08-19T02:58:52.199Z,99619.81
2018-08-19T03:01:20.614Z,99654.68
2018-08-19T03:03:49.080Z,99657.48
2018-08-19T03:06:19.349Z,99654.03
2018-08-19T03:08:59.975Z,99656.22
2018-08-19T03:11:30.032Z,99657.14
2018-08-19T03:14:00.499Z,99662.88
2018-08-19T03:16:29.566Z,99660.34
2018-08-19T03:18:59.778Z,99655.58
2018-08-19T03:21:29.950Z,99659.92
2018-08-19T03:23:59.295Z,99657.39
2018-08-19T03:26:32.519Z,99654.86
2018-08-19T03:29:07.787Z,99650.55
2018-08-19T03:31:36.756Z,99654.34
2018-08-19T03:34:08.218Z,99651.55
2018-08-19T03:36:38.527Z,99648.54
2018-08-19T03:39:17.124Z,99649.82
2018-08-19T03:41:47.076Z,99655.12
2018-08-19T03:44:16.239Z,99651.75
2018-08-19T03:46:44.560Z,99659.89
2018-08-19T03:49:13.528Z,99661.94
2018-08-19T03:51:42.096Z,99656.39
2018-08-19T03:54:11.806Z,99659.38
2018-08-19T03:56:41.621Z,99652.83
2018-08-19T03:59:13.608Z,99656.08
2018-08-19T04:01:43.851Z,99658.61
2018-08-19T04:04:16.041Z,99654.53
2018-08-19T04:06:46.137Z,99652.55
2018-08-19T04:09:15.320Z,99654.33
2018-08-19T04:11:43.767Z,99618.82
2018-08-19T04:14:26.798Z,99654.18
2018-08-19T04:16:57.552Z,99657.87
2018-08-19T04:19:27.695Z,99654.18
2018-08-19T04:22:01.255Z,99657.77
2018-08-19T04:24:32.315Z,99658.81
2018-08-19T04:27:07.238Z,99664.63
2018-08-19T04:29:36.096Z,99660.42
2018-08-19T04:32:07.644Z,99665.48
2018-08-19T04:34:37.557Z,99663.24
2018-08-19T04:37:07.579Z,99658.41
2018-08-19T04:39:37.307Z,99658.75
2018-08-19T04:42:07.546Z,99661.80
2018-08-19T04:44:37.293Z,99662.80
2018-08-19T04:47:20.128Z,99660.14
2018-08-19T04:49:52.796Z,99657.23
2018-08-19T04:52:24.357Z,99659.88
2018-08-19T04:54:53.760Z,99662.52
2018-08-19T04:57:22.543Z,99664.13
2018-08-19T04:59:52.703Z,99668.95
2018-08-19T05:02:22.098Z,99669.97
2018-08-19T05:04:51.641Z,99669.55
2018-08-19T05:07:21.377Z,99672.55
2018-08-19T05:09:50.697Z,99672.05
2018-08-19T05:12:19.853Z,99676.71
2018-08-19T05:14:50.315Z,99677.16
2018-08-19T05:17:18.982Z,99665.20
2018-08-19T05:19:48.491Z,99670.34
2018-08-19T05:22:16.847Z,99665.33
2018-08-19T05:24:47.011Z,99665.95
2018-08-19T05:27:18.172Z,99667.33
2018-08-19T05:29:51.240Z,99665.34
2018-08-19T05:32:20.835Z,99669.59
2018-08-19T05:34:49.796Z,99663.30
2018-08-19T05:37:19.624Z,99659.32
2018-08-19T05:39:53.105Z,99665.28
2018-08-19T05:42:24.091Z,99669.45
2018-08-19T05:44:53.388Z,99668.91
2018-08-19T05:47:23.929Z,99668.02
2018-08-19T05:49:53.891Z,99666.76
2018-08-19T05:52:25.031Z,99667.76
2018-08-19T05:54:57.588Z,99668.72
2018-08-19T05:57:27.044Z,99670.39
2018-08-19T05:59:56.513Z,99658.26
2018-08-19T06:02:31.276Z,99653.91
2018-08-19T06:05:00.542Z,99663.69
2018-08-19T06:07:30.871Z,99662.29
2018-08-19T06:10:01.789Z,99661.90
2018-08-19T06:12:30.764Z,99654.03
2018-08-19T06:15:02.589Z,99660.08
2018-08-19T06:17:31.469Z,99655.33
2018-08-19T06:20:00.731Z,99653.50
2018-08-19T06:22:34.556Z,99656.98
2018-08-19T06:25:04.580Z,99658.64
2018-08-19T06:27:42.655Z,99656.55
2018-08-19T06:30:11.756Z,99659.67
2018-08-19T06:32:41.650Z,99661.30
2018-08-19T06:35:10.252Z,99661.14
2018-08-19T06:37:39.845Z,99664.18
2018-08-19T06:40:11.051Z,99667.80
2018-08-19T06:42:40.365Z,99667.99
2018-08-19T06:45:09.700Z,99666.52
2018-08-19T06:47:40.507Z,99667.44
2018-08-19T06:50:18.871Z,99665.64
2018-08-19T06:52:47.856Z,99666.42
2018-08-19T06:55:17.399Z,99664.65
2018-08-19T06:57:46.124Z,99672.44
2018-08-19T07:00:21.428Z,99671.98
2018-08-19T07:02:49.756Z,99669.81
2018-08-19T07:05:19.236Z,99665.13
2018-08-19T07:07:48.617Z,99659.64
2018-08-19T07:10:23.257Z,99654.73
2018-08-19T07:12:56.153Z,99651.59
2018-08-19T07:15:24.822Z,99650.80
2018-08-19T07:17:55.116Z,99655.44
2018-08-19T07:20:23.830Z,99660.13
2018-08-19T07:22:52.705Z,99655.20
2018-08-19T07:25:22.020Z,99661.67
2018-08-19T07:27:50.562Z,99654.79
2018-08-19T07:30:19.298Z,99660.02
2018-08-19T07:32:48.104Z,99661.18
2018-08-19T07:35:16.453Z,99665.44
2018-08-19T07:37:46.164Z,99661.80
2018-08-19T07:40:15.153Z,99667.45
2018-08-19T07:42:43.498Z,99656.29
2018-08-19T07:45:11.851Z,99659.81
2018-08-19T07:47:40.237Z,99651.41
2018-08-19T07:50:10.804Z,99650.63
2018-08-19T07:52:39.610Z,99652.64
2018-08-19T07:55:09.180Z,99649.97
2018-08-19T07:57:41.772Z,99655.46
2018-08-19T08:00:12.283Z,99659.51
2018-08-19T08:02:40.733Z,99646.77
2018-08-19T08:05:11.153Z,99645.73
2018-08-19T08:07:47.876Z,99648.21
2018-08-19T08:10:18.466Z,99646.55
2018-08-19T08:12:54.320Z,99646.84
2018-08-19T08:15:23.775Z,99651.92
2018-08-19T08:17:53.088Z,99650.05
2018-08-19T08:20:22.253Z,99653.88
2018-08-19T08:22:50.629Z,99655.47
2018-08-19T08:25:19.003Z,99652.58
2018-08-19T08:27:47.648Z,99658.73
2018-08-19T08:30:16.103Z,99659.63
2018-08-19T08:32:46.712Z,99649.75
2018-08-19T08:35:18.600Z,99647.23
2018-08-19T08:37:48.261Z,99652.83
2018-08-19T08:40:17.781Z,99651.95
2018-08-19T08:42:47.084Z,99653.59
2018-08-19T08:45:19.654Z,99651.14
2018-08-19T08:47:48.412Z,99654.85
2018-08-19T08:50:17.292Z,99653.35
2018-08-19T08:52:46.343Z,99648.39
2018-08-19T08:55:14.723Z,99642.27
2018-08-19T08:57:44.515Z,99643.76
2018-08-19T09:00:13.903Z,99637.16
2018-08-19T09:02:43.033Z,99640.83
2018-08-19T09:05:14.440Z,99637.14
2018-08-19T09:07:43.003Z,99629.45
2018-08-19T09:10:15.059Z,99630.63
2018-08-19T09:12:56.295Z,99633.63
2018-08-19T09:15:25.051Z,99633.08
2018-08-19T09:17:55.492Z,99624.74
2018-08-19T09:20:25.540Z,99626.56
2018-08-19T09:22:54.569Z,99616.81
2018-08-19T09:25:24.192Z,99617.86
2018-08-19T09:27:53.656Z,99615.62
2018-08-19T09:30:30.319Z,99612.24
2018-08-19T09:33:00.985Z,99602.80
2018-08-19T09:35:31.732Z,99605.41
2018-08-19T09:38:05.733Z,99599.61
2018-08-19T09:40:36.044Z,99602.13
2018-08-19T09:43:07.599Z,99594.88
2018-08-19T09:45:36.396Z,99587.53
2018-08-19T09:48:07.048Z,99590.36
2018-08-19T09:50:37.427Z,99589.15
2018-08-19T09:53:07.823Z,99583.10
2018-08-19T09:55:44.499Z,99586.16
2018-08-19T09:58:19.923Z,99583.06
2018-08-19T10:00:53.380Z,99584.79
2018-08-19T10:03:24.980Z,99587.36
2018-08-19T10:05:54.803Z,99582.19
2018-08-19T10:08:26.715Z,99583.69
2018-08-19T10:10:55.764Z,99576.02
2018-08-19T10:13:24.392Z,99576.13
2018-08-19T10:15:54.111Z,99569.45
2018-08-19T10:18:23.551Z,99571.01
2018-08-19T10:20:53.239Z,99566.02
2018-08-19T10:23:25.632Z,99576.60
2018-08-19T10:25:54.670Z,99566.42
2018-08-19T10:28:25.468Z,99558.78
2018-08-19T10:30:57.921Z,99564.12
2018-08-19T10:33:27.374Z,99564.33
2018-08-19T10:35:59.696Z,99565.23
2018-08-19T10:38:28.742Z,99561.73
2018-08-19T10:41:03.693Z,99558.13
2018-08-19T10:43:32.943Z,99560.86
2018-08-19T10:46:03.853Z,99553.52
2018-08-19T10:48:32.996Z,99551.80
2018-08-19T10:51:02.708Z,99537.87
2018-08-19T10:53:32.397Z,99547.22
2018-08-19T10:56:01.944Z,99541.31
2018-08-19T10:58:31.364Z,99544.61
2018-08-19T11:01:00.145Z,99532.19
2018-08-19T11:03:29.776Z,99529.08
2018-08-19T11:06:01.068Z,99523.15
2018-08-19T11:08:30.360Z,99521.18
2018-08-19T11:11:00.531Z,99517.61
2018-08-19T11:13:31.506Z,99519.47
2018-08-19T11:16:00.708Z,99513.73
2018-08-19T11:18:36.933Z,99509.94
2018-08-19T11:21:12.370Z,99504.95
2018-08-19T11:23:43.021Z,99501.63
2018-08-19T11:26:12.812Z,99503.18
2018-08-19T11:28:52.354Z,99501.28
2018-08-19T11:31:27.666Z,99501.06
2018-08-19T11:33:57.989Z,99490.91
2018-08-19T11:36:32.981Z,99487.69
2018-08-19T11:39:04.463Z,99487.91
2018-08-19T11:41:35.435Z,99490.05
2018-08-19T11:44:07.990Z,99483.80
2018-08-19T11:46:36.943Z,99479.87
2018-08-19T11:49:12.940Z,99482.59
2018-08-19T11:51:54.141Z,99484.25
2018-08-19T11:54:25.792Z,99478.77
2018-08-19T11:57:01.027Z,99483.29
2018-08-19T11:59:49.411Z,99478.27
2018-08-19T12:02:21.223Z,99476.55
2018-08-19T12:04:50.816Z,99468.30
2018-08-19T12:07:21.805Z,99466.41
2018-08-19T12:09:57.627Z,99464.19
2018-08-19T12:12:43.172Z,99435.34
2018-08-19T12:15:12.619Z,99468.57
2018-08-19T12:17:45.202Z,99471.73
2018-08-19T12:20:18.488Z,99462.68
2018-08-19T12:22:51.697Z,99371.37
2018-08-19T12:25:22.528Z,99456.03
2018-08-19T12:27:52.304Z,99454.25
2018-08-19T12:30:21.286Z,99447.23
2018-08-19T12:32:51.457Z,99448.75
2018-08-19T12:35:21.679Z,99441.88
2018-08-19T12:37:50.968Z,99436.09
2018-08-19T12:40:20.713Z,99431.34
2018-08-19T12:42:55.792Z,99433.99
2018-08-19T12:45:25.957Z,99436.09
2018-08-19T12:47:55.944Z,99429.45
2018-08-19T12:50:25.600Z,99427.91
2018-08-19T12:52:54.667Z,99427.55
2018-08-19T12:55:24.374Z,99426.53
2018-08-19T12:58:02.425Z,99423.48
2018-08-19T13:00:31.575Z,99419.58
2018-08-19T13:03:02.788Z,99414.77
2018-08-19T13:05:34.244Z,99420.13
2018-08-19T13:08:04.668Z,99418.42
2018-08-19T13:10:39.843Z,99415.13
2018-08-19T13:13:09.268Z,99416.42
2018-08-19T13:15:40.346Z,99405.25
2018-08-19T13:18:10.292Z,99400.67
2018-08-19T13:20:41.797Z,99405.72
2018-08-19T13:23:10.836Z,99396.41
2018-08-19T13:25:47.944Z,99397.30
2018-08-19T13:28:17.205Z,99397.30
2018-08-19T13:30:47.189Z,99389.88
2018-08-19T13:33:17.908Z,99393.59
2018-08-19T13:35:47.025Z,99384.63
2018-08-19T13:38:30.861Z,99387.62
2018-08-19T13:41:00.200Z,99377.86
2018-08-19T13:43:29.534Z,99373.43
2018-08-19T13:45:59.640Z,99374.27
2018-08-19T13:48:28.672Z,99368.86
2018-08-19T13:50:58.056Z,99366.92
2018-08-19T13:53:29.161Z,99358.94
2018-08-19T13:55:58.464Z,99361.19
2018-08-19T13:58:28.725Z,99362.36
2018-08-19T14:01:00.119Z,99361.95
2018-08-19T14:03:30.986Z,99359.00
2018-08-19T14:06:03.066Z,99360.48
2018-08-19T14:08:34.648Z,99357.10
2018-08-19T14:11:06.224Z,99354.52
2018-08-19T14:13:36.014Z,99355.78
2018-08-19T14:16:06.260Z,99349.20
2018-08-19T14:18:36.632Z,99347.46
2018-08-19T14:21:07.058Z,99344.55
2018-08-19T14:23:38.843Z,99351.30
2018-08-19T14:26:12.588Z,99352.36
2018-08-19T14:28:48.180Z,99348.74
2018-08-19T14:31:17.369Z,99339.71
2018-08-19T14:33:47.598Z,99346.17
2018-08-19T14:36:16.956Z,99339.38
2018-08-19T14:38:46.664Z,99333.01
2018-08-19T14:41:16.015Z,99334.83
2018-08-19T14:44:01.189Z,99331.56
2018-08-19T14:46:35.998Z,99333.80
2018-08-19T14:49:06.323Z,99334.22
2018-08-19T14:51:47.263Z,99325.73
2018-08-19T14:54:18.044Z,99322.41
2018-08-19T14:56:50.548Z,99314.64
2018-08-19T14:59:19.744Z,99322.19
2018-08-19T15:01:49.671Z,99317.80
2018-08-19T15:04:20.155Z,99313.48
2018-08-19T15:06:50.140Z,99322.39
2018-08-19T15:09:32.568Z,99319.36
2018-08-19T15:12:17.225Z,99320.45
2018-08-19T15:14:50.725Z,99324.19
2018-08-19T15:17:22.001Z,99317.70
2018-08-19T15:19:57.986Z,99317.77
2018-08-19T15:22:27.998Z,99308.90
2018-08-19T15:25:00.295Z,99313.32
2018-08-19T15:27:29.728Z,99310.06
2018-08-19T15:30:00.913Z,99317.95
2018-08-19T15:32:32.143Z,99317.10
2018-08-19T15:35:02.096Z,99311.52
2018-08-19T15:37:38.212Z,99315.44
2018-08-19T15:40:07.683Z,99317.09
2018-08-19T15:42:38.073Z,99315.29
2018-08-19T15:45:08.189Z,99320.52
2018-08-19T15:47:40.153Z,99321.64
2018-08-19T15:50:19.162Z,99309.20
2018-08-19T15:52:49.704Z,99313.61
2018-08-19T15:55:19.840Z,99319.64
2018-08-19T15:57:48.407Z,99306.89
2018-08-19T16:00:17.568Z,99307.22
2018-08-19T16:02:49.237Z,99309.72
2018-08-19T16:05:20.636Z,99307.88
2018-08-19T16:07:54.752Z,99308.90
2018-08-19T16:10:28.812Z,99307.61
2018-08-19T16:12:59.147Z,99300.18
2018-08-19T16:15:32.422Z,99305.52
2018-08-19T16:18:04.338Z,99309.38
2018-08-19T16:20:35.477Z,99299.24
2018-08-19T16:23:06.046Z,99298.48
2018-08-19T16:25:38.200Z,99296.17
2018-08-19T16:28:08.700Z,99292.16
2018-08-19T16:30:38.433Z,99293.66
2018-08-19T16:33:08.621Z,99291.78
2018-08-19T16:35:37.485Z,99292.33
2018-08-19T16:38:08.216Z,99287.84
2018-08-19T16:40:37.239Z,99285.42
2018-08-19T16:43:05.878Z,99285.81
2018-08-19T16:45:36.022Z,99290.78
2018-08-19T16:48:09.566Z,99290.05
2018-08-19T16:50:38.616Z,99285.36
2018-08-19T16:53:10.012Z,99287.66
2018-08-19T16:55:40.099Z,99282.57
2018-08-19T16:58:09.096Z,99280.98
2018-08-19T17:00:41.159Z,99278.52
2018-08-19T17:03:28.628Z,99283.80
2018-08-19T17:06:00.449Z,99281.38
2018-08-19T17:08:30.783Z,99254.34
2018-08-19T17:11:01.030Z,99277.89
2018-08-19T17:13:29.953Z,99276.08
2018-08-19T17:16:02.519Z,99273.75
2018-08-19T17:18:37.091Z,99270.78
2018-08-19T17:21:05.839Z,99277.13
2018-08-19T17:23:41.196Z,99280.44
2018-08-19T17:26:16.616Z,99283.17
2018-08-19T17:28:46.576Z,99276.13
2018-08-19T17:31:18.020Z,99274.01
2018-08-19T17:36:50.499Z,99278.70
2018-08-19T17:39:24.207Z,99289.59
2018-08-19T17:41:54.528Z,99282.44
2018-08-19T17:44:23.852Z,99279.81
2018-08-19T17:46:55.477Z,99278.91
2018-08-19T17:49:26.828Z,99281.53
2018-08-19T17:52:02.779Z,99274.85
2018-08-19T17:54:35.340Z,99285.40
2018-08-19T17:57:04.209Z,99276.17
2018-08-19T17:59:38.380Z,99273.78
2018-08-19T18:02:09.020Z,99279.59
2018-08-19T18:04:45.464Z,99284.08
2018-08-19T18:07:19.401Z,99285.38
2018-08-19T18:09:55.808Z,99284.25
2018-08-19T18:12:29.992Z,99284.13
2018-08-19T18:15:00.843Z,99282.80
2018-08-19T18:17:33.949Z,99280.98
2018-08-19T18:20:26.105Z,99283.52
2018-08-19T18:22:58.500Z,99286.09
2018-08-19T18:25:29.393Z,99290.89
2018-08-19T18:28:00.388Z,99291.87
2018-08-19T18:30:30.177Z,99291.34
2018-08-19T18:33:03.651Z,99295.08
2018-08-19T18:35:33.909Z,99295.58
2018-08-19T18:38:03.150Z,99297.63
2018-08-19T18:40:36.180Z,99295.33
2018-08-19T18:43:06.040Z,99301.95
2018-08-19T18:45:38.173Z,99302.68
2018-08-19T18:48:08.465Z,99305.00
2018-08-19T18:50:37.688Z,99306.96
2018-08-19T18:53:08.264Z,99306.82
2018-08-19T18:55:42.462Z,99301.90
2018-08-19T18:58:12.921Z,99308.20
2018-08-19T19:00:49.213Z,99308.20
2018-08-19T19:03:18.433Z,99313.03
2018-08-19T19:05:49.152Z,99308.28
2018-08-19T19:08:18.844Z,99312.58
2018-08-19T19:10:58.365Z,99315.98
2018-08-19T19:13:28.672Z,99319.09
2018-08-19T19:15:58.008Z,99317.77
2018-08-19T19:18:26.978Z,99318.19
2018-08-19T19:21:05.515Z,99316.22
2018-08-19T19:23:38.304Z,99326.08
2018-08-19T19:26:08.656Z,99318.25
2018-08-19T19:28:37.603Z,99323.66
2018-08-19T19:31:11.791Z,99321.02
2018-08-19T19:33:41.020Z,99329.73
2018-08-19T19:36:16.011Z,99327.01
2018-08-19T19:38:49.137Z,99329.09
2018-08-19T19:41:23.967Z,99332.95
2018-08-19T19:43:52.311Z,99333.54
2018-08-19T19:46:20.868Z,99332.97
2018-08-19T19:48:53.579Z,99333.31
2018-08-19T19:51:23.533Z,99334.55
2018-08-19T19:53:53.607Z,99335.17
2018-08-19T19:56:22.276Z,99338.64
2018-08-19T19:58:51.796Z,99343.81
2018-08-19T20:01:22.248Z,99336.55
2018-08-19T20:03:53.996Z,99348.77
2018-08-19T20:06:25.090Z,99355.54
2018-08-19T20:08:53.711Z,99357.54
2018-08-19T20:11:30.063Z,99361.24
2018-08-19T20:14:03.159Z,99360.36
2018-08-19T20:16:31.492Z,99354.85
2018-08-19T20:19:01.947Z,99356.92
2018-08-19T20:21:34.446Z,99357.90
2018-08-19T20:24:04.408Z,99364.20
2018-08-19T20:26:33.182Z,99361.01
2018-08-19T20:29:03.875Z,99364.27
2018-08-19T20:31:33.388Z,99359.72
2018-08-19T20:34:04.464Z,99358.50
2018-08-19T20:36:33.112Z,99335.23
2018-08-19T20:39:05.493Z,99363.39
2018-08-19T20:41:34.264Z,99363.88
2018-08-19T20:44:02.956Z,99370.50
2018-08-19T20:46:32.827Z,99373.78
2018-08-19T20:49:01.865Z,99374.00
2018-08-19T20:51:30.204Z,99380.52
2018-08-19T20:54:01.485Z,99380.02
2018-08-19T20:56:30.767Z,99377.27
2018-08-19T21:25:06.496Z,99389.46
2018-08-19T21:27:36.041Z,99393.44
2018-08-19T21:30:05.400Z,99395.56
2018-08-19T21:32:34.720Z,99397.98
2018-08-19T21:35:04.683Z,99397.64
2018-08-19T21:37:36.480Z,99397.69
2018-08-19T21:40:06.163Z,99401.53
2018-08-19T21:42:54.399Z,99400.66
2018-08-19T21:45:25.012Z,99399.26
2018-08-19T21:47:55.997Z,99402.39
2018-08-19T21:50:25.217Z,99401.16
2018-08-19T21:53:08.585Z,99402.73
2018-08-19T21:55:39.256Z,99402.70
2018-08-19T21:58:10.516Z,99403.42
2018-08-19T22:00:45.316Z,99398.45
2018-08-19T22:03:21.081Z,99398.92
2018-08-19T22:05:51.112Z,99405.53
2018-08-19T22:08:23.416Z,99404.19
2018-08-19T22:10:55.455Z,99400.06
2018-08-19T22:13:24.424Z,99401.36
2018-08-19T22:15:53.203Z,99399.06
2018-08-19T22:18:22.709Z,99395.05
2018-08-19T22:21:24.404Z,99391.23
2018-08-19T22:23:56.262Z,99390.57
2018-08-19T22:26:24.936Z,99397.69
2018-08-19T22:29:08.942Z,99396.58
2018-08-19T22:31:37.364Z,99397.38
2018-08-19T22:34:05.729Z,99394.21
2018-08-19T22:36:34.133Z,99402.06
2018-08-19T22:39:03.135Z,99399.36
2018-08-19T22:41:33.454Z,99405.27
2018-08-19T22:44:01.956Z,99403.45
2018-08-19T22:46:31.403Z,99404.73
2018-08-19T22:48:59.832Z,99407.72
2018-08-19T22:51:33.092Z,99403.45
2018-08-19T22:54:02.190Z,99404.37
2018-08-19T22:56:31.279Z,99405.00
2018-08-19T22:59:00.165Z,99402.82
2018-08-19T23:01:36.128Z,99411.36
2018-08-19T23:04:07.408Z,99405.23
2018-08-19T23:06:37.036Z,99406.84
2018-08-19T23:09:07.968Z,99404.63
2018-08-19T23:11:44.851Z,99404.37
2018-08-19T23:14:25.895Z,99405.72
2018-08-19T23:16:55.540Z,99413.16
2018-08-19T23:19:26.209Z,99411.63
2018-08-19T23:21:54.928Z,99408.61
2018-08-19T23:24:24.589Z,99414.52
2018-08-19T23:26:54.195Z,99410.12
2018-08-19T23:29:26.574Z,99407.59
2018-08-19T23:31:56.300Z,99415.53
2018-08-19T23:34:25.428Z,99409.47
2018-08-19T23:36:54.471Z,99408.33
2018-08-19T23:39:23.847Z,99411.78
2018-08-19T23:41:52.604Z,99405.97
2018-08-19T23:44:21.953Z,99401.75
2018-08-19T23:46:53.583Z,99376.81
2018-08-19T23:49:22.987Z,99411.50
2018-08-19T23:51:55.945Z,99409.34
2018-08-19T23:54:26.261Z,99412.22
2018-08-19T23:56:59.839Z,99414.58
2018-08-19T23:59:39.197Z,99414.58
